Flight Track Log - Related Links

Times and Time Zones

All times are in EDT time to prevent confusion due to time zone crossing. See the OPT732 flight status page for this flight to view local times or setup timezone preferences in your user account.

Time Position Orientation Groundspeed Altitude Reporting Facility
EDT Latitude Longitude Course Direction KTS MPH feet Rate Location/Type
Sun 08:33:58 PM 40.8747 -81.4672 180° South 197 227 3,700  Level Cleveland Center
Sun 08:34:58 PM 40.8100 -81.4692 181° South 234 269 6,600 2,900 Climbing Cleveland Center
Sun 08:35:58 PM 40.7369 -81.4683 180° South 248 285 9,500 3,200 Climbing Cleveland Center
Sun 08:36:58 PM 40.6600 -81.4700 181° South 270 311 13,000 3,050 Climbing Cleveland Center
Sun 08:37:58 PM 40.5722 -81.4714 181° South 302 348 15,600 2,400 Climbing Cleveland Center
Sun 08:38:58 PM 40.4869 -81.4731 181° South 331 381 17,800 2,300 Climbing Cleveland Center
Sun 08:39:00 PM 40.3200 -81.3769 180° South  Level Estimated
Sun 08:39:58 PM 40.3806 -81.4717 179° South 360 414 20,200  Level Cleveland Center
Sun 08:40:58 PM 40.2764 -81.4731 181° South 382 440 22,700 1,400 Climbing Cleveland Center
Sun 08:41:58 PM 40.1597 -81.4658 177° South 397 457 23,000 194 Climbing Cleveland Center
Sun 08:42:31 PM 40.0933 -81.4597 176° South 443 510 23,000 511 Level Indianapolis Center
Sun 08:43:32 PM 39.9569 -81.4408 174° South 469 540 23,800 1,415 Climbing Indianapolis Center
Sun 08:44:34 PM 39.8128 -81.4222 174° South 475 547 25,900 2,049 Climbing Indianapolis Center
Sun 08:45:35 PM 39.6819 -81.3994 172° South 474 545 28,000 1,756 Climbing Indianapolis Center
Sun 08:46:37 PM 39.5489 -81.3694 170° South 482 555 29,500 1,317 Climbing Indianapolis Center
Sun 08:47:38 PM 39.4131 -81.3372 170° South 492 566 30,700 732 Climbing Indianapolis Center
Sun 08:48:40 PM 39.2697 -81.3014 169° South 518 596 31,000 585 Climbing Indianapolis Center
Sun 08:49:41 PM 39.1222 -81.2661 169° South 533 613 31,900 1,377 Climbing Indianapolis Center
Sun 08:50:42 PM 38.9781 -81.2400 172° South 521 600 33,800 1,756 Climbing Indianapolis Center
Sun 08:51:44 PM 38.8458 -81.2581 186° South 476 548 35,500 1,415 Climbing Indianapolis Center
Sun 08:52:45 PM 38.7131 -81.2833 188° South 473 544 36,700 1,220 Climbing Indianapolis Center
Sun 08:53:47 PM 38.5803 -81.3078 188° South 470 541 38,000 1,220 Climbing Indianapolis Center
Sun 08:54:48 PM 38.4517 -81.3317 188° South 462 532 39,200 1,230 Climbing Indianapolis Center
Sun 08:55:49 PM 38.3014 -81.3600 188° South 452 520 40,500 1,024 Climbing Indianapolis Center
Sun 08:56:51 PM 38.1781 -81.3817 188° South 446 513 41,300 683 Climbing Indianapolis Center
Sun 08:57:52 PM 38.0539 -81.4047 188° South 448 516 41,900 541 Climbing Indianapolis Center
Sun 08:58:53 PM 37.9306 -81.4269 188° South 446 513 42,400 488 Climbing Indianapolis Center
Sun 08:59:55 PM 37.8183 -81.4464 188° South 446 513 42,900 293 Climbing Indianapolis Center
Sun 09:00:56 PM 37.6728 -81.4717 188° South 451 519 43,000 49 Climbing Indianapolis Center
Sun 09:01:58 PM 37.5503 -81.4944 188° South 458 527 43,000  Level Indianapolis Center
Sun 09:02:59 PM 37.4206 -81.5172 188° South 465 535 43,000  Level Indianapolis Center
Sun 09:04:00 PM 37.2906 -81.5403 188° South 468 539 43,000  Level Indianapolis Center
Sun 09:05:01 PM 37.1589 -81.5633 188° South 472 543 43,000  Level Indianapolis Center
Sun 09:05:22 PM 37.1136 -81.5714 188° South 467 537 43,000  Level Atlanta Center
Sun 09:06:22 PM 36.9850 -81.5961 189° South 473 544 43,000  Level Atlanta Center
Sun 09:07:22 PM 36.8539 -81.6158 187° South 478 550 43,000  Level Atlanta Center
Sun 09:08:22 PM 36.7250 -81.6406 189° South 478 550 43,000  Level Atlanta Center
Sun 09:09:22 PM 36.5922 -81.6625 188° South 483 556 43,000  Level Atlanta Center
Sun 09:10:22 PM 36.4653 -81.6817 187° South 478 550 43,000  Level Atlanta Center
Sun 09:11:22 PM 36.3325 -81.7114 190° South 478 550 43,000  Level Atlanta Center
Sun 09:12:22 PM 36.2033 -81.7306 187° South 484 557 43,000  Level Atlanta Center
Sun 09:13:22 PM 36.0725 -81.7525 188° South 484 557 43,000  Level Atlanta Center
Sun 09:14:22 PM 35.9394 -81.7792 189° South 484 557 43,000  Level Atlanta Center
Sun 09:15:22 PM 35.8106 -81.7981 187° South 477 549 43,000  Level Atlanta Center
Sun 09:16:22 PM 35.6775 -81.8247 189° South 477 549 43,000  Level Atlanta Center
Sun 09:17:22 PM 35.5464 -81.8436 187° South 482 555 43,000  Level Atlanta Center
Sun 09:18:22 PM 35.4133 -81.8675 188° South 482 555 43,000  Level Atlanta Center
Sun 09:19:22 PM 35.2822 -81.8914 188° South 476 548 43,000  Level Atlanta Center
Sun 09:20:22 PM 35.1492 -81.9128 187° South 481 554 43,000  Level Atlanta Center
Sun 09:21:22 PM 35.0056 -81.9392 189° South 486 559 43,000  Level Atlanta Center
Sun 09:22:22 PM 34.8764 -81.9550 186° South 481 554 43,000  Level Atlanta Center
Sun 09:23:22 PM 34.7558 -81.9758 188° South 481 554 43,000  Level Atlanta Center
Sun 09:24:22 PM 34.6267 -82.0017 189° South 481 554 43,000  Level Atlanta Center
Sun 09:25:22 PM 34.4956 -82.0225 187° South 481 554 43,000  Level Atlanta Center
Sun 09:26:22 PM 34.3667 -82.0458 188° South 481 554 43,000  Level Atlanta Center
Sun 09:27:22 PM 34.2333 -82.0689 188° South 481 554 43,000  Level Atlanta Center
Sun 09:28:22 PM 34.1022 -82.0919 188° South 481 554 43,000  Level Atlanta Center
Sun 09:29:22 PM 33.9733 -82.1150 188° South 481 554 43,000  Level Atlanta Center
Sun 09:30:22 PM 33.8422 -82.1381 188° South 481 554 43,000  Level Atlanta Center
Sun 09:31:22 PM 33.7067 -82.1508 184° South 486 559 43,000  Level Atlanta Center
Sun 09:32:22 PM 33.5608 -82.1642 184° South 486 559 43,000  Level Atlanta Center
Sun 09:33:22 PM 33.4294 -82.1719 183° South 480 552 43,000  Level Atlanta Center
Sun 09:34:22 PM 33.3000 -82.1822 184° South 480 552 43,000  Level Atlanta Center
Sun 09:35:22 PM 33.1686 -82.1900 183° South 480 552 43,000  Level Atlanta Center
Sun 09:37:04 PM 32.9622 -82.2042 183° South 472 543 43,000  Level Jacksonville Center
Sun 09:38:04 PM 32.8347 -82.2128 183° South 472 543 43,000  Level Jacksonville Center
Sun 09:39:04 PM 32.6908 -82.2236 184° South 472 543 43,000  Level Jacksonville Center
Sun 09:40:04 PM 32.5656 -82.2319 183° South 472 543 43,000  Level Jacksonville Center
Sun 09:41:04 PM 32.4342 -82.2353 181° South 472 543 43,000  Level Jacksonville Center
Sun 09:42:04 PM 32.3194 -82.2461 185° South 466 536 43,000  Level Jacksonville Center
Sun 09:43:04 PM 32.1775 -82.2569 184° South 466 536 43,000  Level Jacksonville Center
Sun 09:44:04 PM 32.0586 -82.2625 182° South 473 544 43,000  Level Jacksonville Center
Sun 09:45:04 PM 31.9125 -82.2733 184° South 478 550 43,000  Level Jacksonville Center
Sun 09:46:04 PM 31.7789 -82.2817 183° South 478 550 43,000  Level Jacksonville Center
Sun 09:47:04 PM 31.6619 -82.2897 183° South 478 550 43,000  Level Jacksonville Center
Sun 09:48:04 PM 31.5181 -82.3028 184° South 478 550 43,000  Level Jacksonville Center
Sun 09:49:04 PM 31.3844 -82.3086 182° South 478 550 43,000  Level Jacksonville Center
Sun 09:50:04 PM 31.2508 -82.3167 183° South 478 550 43,000  Level Jacksonville Center
Sun 09:51:04 PM 31.1192 -82.3247 183° South 478 550 43,000  Level Jacksonville Center
Sun 09:52:04 PM 30.9878 -82.3328 183° South 478 550 43,000  Level Jacksonville Center
Sun 09:53:04 PM 30.8542 -82.3433 184° South 478 550 43,000  Level Jacksonville Center
Sun 09:54:04 PM 30.7225 -82.3514 183° South 478 550 43,000  Level Jacksonville Center
Sun 09:55:04 PM 30.5911 -82.3569 182° South 478 550 43,000  Level Jacksonville Center
Sun 09:56:04 PM 30.4575 -82.3672 184° South 478 550 43,000  Level Jacksonville Center
Sun 09:57:04 PM 30.3239 -82.3681 180° South 478 550 43,000  Level Jacksonville Center
Sun 09:58:04 PM 30.2028 -82.3639 178° South 483 556 43,000  Level Jacksonville Center
Sun 09:59:04 PM 30.0692 -82.3622 179° South 483 556 43,000  Level Jacksonville Center
Sun 10:00:04 PM 29.9231 -82.3533 177° South 483 556 43,000  Level Jacksonville Center
Sun 10:01:04 PM 29.7872 -82.3469 178° South 483 556 43,000  Level Jacksonville Center
Sun 10:02:04 PM 29.6536 -82.3453 179° South 478 550 43,000  Level Jacksonville Center
Sun 10:03:04 PM 29.5181 -82.3436 179° South 478 550 43,000  Level Jacksonville Center
Sun 10:04:04 PM 29.3822 -82.3397 179° South 483 556 43,000  Level Jacksonville Center
Sun 10:05:04 PM 29.2444 -82.3356 178° South 483 556 43,000  Level Jacksonville Center
Sun 10:06:04 PM 29.1086 -82.3342 179° South 483 556 43,000  Level Jacksonville Center
Sun 10:07:04 PM 28.9708 -82.3300 178° South 489 563 43,000  Level Jacksonville Center
Sun 10:08:04 PM 28.8394 -82.3261 179° South 489 563 43,000  Level Jacksonville Center
Sun 10:09:04 PM 28.6994 -82.3175 177° South 494 568 43,000 -200 Level Jacksonville Center
Sun 10:10:04 PM 28.5617 -82.2969 173° South 500 575 42,600 -1,150 Descending Jacksonville Center
Sun 10:11:04 PM 28.4258 -82.2669 169° South 500 575 40,700 -1,947 Descending Jacksonville Center
Sun 10:12:35 PM 28.2458 -82.1258 145° Southeast 502 578 37,700 -2,040 Descending Miami Center
Sun 10:13:34 PM 28.1408 -82.0292 141° Southeast 526 605 35,600 -1,350 Descending Miami Center
Sun 10:14:35 PM 28.0258 -81.9206 140° Southeast 538 619 35,000 -900 Descending Miami Center
Sun 10:15:34 PM 27.9083 -81.8167 142° Southeast 538 619 33,800 -1,450 Descending Miami Center
Sun 10:16:35 PM 27.7950 -81.7131 141° Southeast 537 618 32,100 -2,168 Descending Miami Center
Sun 10:17:33 PM 27.6675 -81.5953 141° Southeast 537 618 29,500 -2,622 Descending Miami Center
Sun 10:18:34 PM 27.5539 -81.4969 142° Southeast 531 611 26,900 -2,508 Descending Miami Center
Sun 10:19:35 PM 27.4464 -81.3989 141° Southeast 513 590 24,400 -2,471 Descending Miami Center
Sun 10:20:33 PM 27.3508 -81.3158 142° Southeast 500 575 22,000 -2,471 Descending Miami Center
Sun 10:21:34 PM 27.2389 -81.2156 141° Southeast 485 558 19,500 -2,380 Descending Miami Center
Sun 10:22:34 PM 27.1436 -81.1281 141° Southeast 455 524 17,200 -2,213 Descending Miami Center
Sun 10:23:36 PM 27.0500 -81.0453 142° Southeast 441 507 15,000 -2,182 Descending Miami Center
Sun 10:24:35 PM 26.9644 -80.9700 142° Southeast 435 501 12,800 -2,350 Descending Miami Center
Sun 10:25:36 PM 26.8667 -80.8806 141° Southeast 429 494 10,300 -1,388 Descending Miami Center
Sun 10:26:36 PM 26.8386 -80.7608 105° East 383 441 10,000 -154 Descending Miami Center
Sun 10:27:33 PM 26.8400 -80.6328 89° East 399 459 10,000  Level Miami Center
Sun 10:28:34 PM 26.8386 -80.5211 91° East 404 465 10,000 -344 Level Miami Center
Sun 10:29:35 PM 26.8411 -80.4186 88° East 358 412 9,300 -1,438 Descending Miami Center
Sun 10:30:35 PM 26.8414 -80.3164 90° East 304 350 7,100 -2,017 Descending Miami Center
Sun 10:31:34 PM 26.8308 -80.2300 98° East 285 328 5,300 -1,881 Descending Miami Center
Sun 10:32:33 PM 26.8100 -80.1456 105° East 278 320 3,400 -1,300 Descending Miami Center
Sun 10:33:34 PM 26.7886 -80.0750 109° East 271 312 2,700 -689 Descending Miami Center
Sun 10:35:00 PM 26.6832 -80.0956 209° Southwest  Level Estimated
Sun 10:42:00 PM 26.6832 -80.0956 50° Northeast  Level Estimated
Sun 10:43:00 PM 26.6832 -80.0956 50° Northeast  Level Estimated
Sun 10:44:00 PM 26.6832 -80.0956 50° Northeast  Level Estimated
Sun 10:45:00 PM 26.6832 -80.0956 50° Northeast  Level Estimated

Login

Don't have an account? Register now (free) for customized features, flight alerts, and more!